sensor_id;sensor_type;location;lat;lon;timestamp;temperature;humidity
29363;DHT22;16349;53.672;10.014;2023-01-16T00:02:00;5.40;99.90
29363;DHT22;16349;53.672;10.014;2023-01-16T00:04:28;5.40;99.90
29363;DHT22;16349;53.672;10.014;2023-01-16T00:06:56;5.40;99.90
29363;DHT22;16349;53.672;10.014;2023-01-16T00:09:23;5.40;99.90
29363;DHT22;16349;53.672;10.014;2023-01-16T00:11:50;5.40;99.90
29363;DHT22;16349;53.672;10.014;2023-01-16T00:14:17;5.40;99.90
29363;DHT22;16349;53.672;10.014;2023-01-16T00:16:43;5.50;99.90
29363;DHT22;16349;53.672;10.014;2023-01-16T00:19:10;5.40;99.90
29363;DHT22;16349;53.672;10.014;2023-01-16T00:21:36;5.50;99.90
29363;DHT22;16349;53.672;10.014;2023-01-16T00:24:05;5.50;99.90
29363;DHT22;16349;53.672;10.014;2023-01-16T00:26:33;5.50;99.90
29363;DHT22;16349;53.672;10.014;2023-01-16T00:29:00;5.50;99.90
29363;DHT22;16349;53.672;10.014;2023-01-16T00:31:27;5.50;99.90
29363;DHT22;16349;53.672;10.014;2023-01-16T00:33:54;5.50;99.90
29363;DHT22;16349;53.672;10.014;2023-01-16T00:36:21;5.50;99.90
29363;DHT22;16349;53.672;10.014;2023-01-16T00:38:48;5.50;99.90
29363;DHT22;16349;53.672;10.014;2023-01-16T00:41:16;5.50;99.90
29363;DHT22;16349;53.672;10.014;2023-01-16T00:43:43;5.50;99.90
29363;DHT22;16349;53.672;10.014;2023-01-16T00:46:10;5.60;99.90
29363;DHT22;16349;53.672;10.014;2023-01-16T00:48:36;5.60;99.90
29363;DHT22;16349;53.672;10.014;2023-01-16T00:51:03;5.50;99.90
29363;DHT22;16349;53.672;10.014;2023-01-16T00:53:30;5.60;99.90
29363;DHT22;16349;53.672;10.014;2023-01-16T00:55:57;5.60;99.90
29363;DHT22;16349;53.672;10.014;2023-01-16T00:58:25;5.60;99.90
29363;DHT22;16349;53.672;10.014;2023-01-16T01:00:52;5.60;99.90
29363;DHT22;16349;53.672;10.014;2023-01-16T01:03:19;5.60;99.90
29363;DHT22;16349;53.672;10.014;2023-01-16T01:05:46;5.60;99.90
29363;DHT22;16349;53.672;10.014;2023-01-16T01:08:12;5.60;99.90
29363;DHT22;16349;53.672;10.014;2023-01-16T01:10:39;5.60;99.90
29363;DHT22;16349;53.672;10.014;2023-01-16T01:13:06;5.60;99.90
29363;DHT22;16349;53.672;10.014;2023-01-16T01:15:34;5.60;99.90
29363;DHT22;16349;53.672;10.014;2023-01-16T01:18:01;5.60;99.90
29363;DHT22;16349;53.672;10.014;2023-01-16T01:20:28;5.60;99.90
29363;DHT22;16349;53.672;10.014;2023-01-16T01:22:55;5.60;99.90
29363;DHT22;16349;53.672;10.014;2023-01-16T01:25:22;5.60;99.90
29363;DHT22;16349;53.672;10.014;2023-01-16T01:27:49;5.60;99.90
29363;DHT22;16349;53.672;10.014;2023-01-16T01:30:16;5.60;99.90
29363;DHT22;16349;53.672;10.014;2023-01-16T01:32:45;5.60;99.90
29363;DHT22;16349;53.672;10.014;2023-01-16T01:35:11;5.60;99.90
29363;DHT22;16349;53.672;10.014;2023-01-16T01:37:38;5.60;99.90
29363;DHT22;16349;53.672;10.014;2023-01-16T01:40:06;5.60;99.90
29363;DHT22;16349;53.672;10.014;2023-01-16T01:42:37;5.60;99.90
29363;DHT22;16349;53.672;10.014;2023-01-16T01:45:19;5.60;99.90
29363;DHT22;16349;53.672;10.014;2023-01-16T01:47:52;5.60;99.90
29363;DHT22;16349;53.672;10.014;2023-01-16T01:50:27;5.60;99.90
29363;DHT22;16349;53.672;10.014;2023-01-16T01:52:59;5.60;99.90
29363;DHT22;16349;53.672;10.014;2023-01-16T01:55:28;5.60;99.90
29363;DHT22;16349;53.672;10.014;2023-01-16T01:57:57;5.60;99.90
29363;DHT22;16349;53.672;10.014;2023-01-16T02:00:26;5.60;99.90
29363;DHT22;16349;53.672;10.014;2023-01-16T02:02:57;5.60;99.90
29363;DHT22;16349;53.672;10.014;2023-01-16T02:05:28;5.70;99.90
29363;DHT22;16349;53.672;10.014;2023-01-16T02:07:58;5.70;99.90
29363;DHT22;16349;53.672;10.014;2023-01-16T02:10:30;5.60;99.90
29363;DHT22;16349;53.672;10.014;2023-01-16T02:13:00;5.60;99.90
29363;DHT22;16349;53.672;10.014;2023-01-16T02:15:27;5.60;99.90
29363;DHT22;16349;53.672;10.014;2023-01-16T02:17:56;5.60;99.90
29363;DHT22;16349;53.672;10.014;2023-01-16T02:20:49;5.60;99.90
29363;DHT22;16349;53.672;10.014;2023-01-16T02:26:51;5.60;99.90
29363;DHT22;16349;53.672;10.014;2023-01-16T02:29:35;5.60;99.90
29363;DHT22;16349;53.672;10.014;2023-01-16T02:32:14;5.60;99.90
29363;DHT22;16349;53.672;10.014;2023-01-16T02:34:55;5.60;99.90
29363;DHT22;16349;53.672;10.014;2023-01-16T02:37:31;5.60;99.90
29363;DHT22;16349;53.672;10.014;2023-01-16T02:40:07;5.60;99.90
29363;DHT22;16349;53.672;10.014;2023-01-16T02:42:43;5.50;99.90
29363;DHT22;16349;53.672;10.014;2023-01-16T02:45:17;5.60;99.90
29363;DHT22;16349;53.672;10.014;2023-01-16T02:47:51;5.60;99.90
29363;DHT22;16349;53.672;10.014;2023-01-16T02:50:24;5.50;99.90
29363;DHT22;16349;53.672;10.014;2023-01-16T02:52:57;5.50;99.90
29363;DHT22;16349;53.672;10.014;2023-01-16T02:55:29;5.50;99.90
29363;DHT22;16349;53.672;10.014;2023-01-16T02:58:00;5.50;99.90
29363;DHT22;16349;53.672;10.014;2023-01-16T03:00:28;5.50;99.90
29363;DHT22;16349;53.672;10.014;2023-01-16T03:02:57;5.50;99.90
29363;DHT22;16349;53.672;10.014;2023-01-16T03:05:24;5.40;99.90
29363;DHT22;16349;53.672;10.014;2023-01-16T03:08:22;5.40;99.90
29363;DHT22;16349;53.672;10.014;2023-01-16T03:11:19;5.40;99.90
29363;DHT22;16349;53.672;10.014;2023-01-16T03:13:55;5.30;99.90
29363;DHT22;16349;53.672;10.014;2023-01-16T03:16:29;5.20;99.90
29363;DHT22;16349;53.672;10.014;2023-01-16T03:19:11;5.20;99.90
29363;DHT22;16349;53.672;10.014;2023-01-16T03:21:42;5.20;99.90
29363;DHT22;16349;53.672;10.014;2023-01-16T03:24:21;5.20;99.90
29363;DHT22;16349;53.672;10.014;2023-01-16T03:26:58;5.20;99.90
29363;DHT22;16349;53.672;10.014;2023-01-16T03:29:31;5.20;99.90
29363;DHT22;16349;53.672;10.014;2023-01-16T03:32:03;5.20;99.90
29363;DHT22;16349;53.672;10.014;2023-01-16T03:34:38;5.20;99.90
29363;DHT22;16349;53.672;10.014;2023-01-16T03:37:10;5.20;99.90
29363;DHT22;16349;53.672;10.014;2023-01-16T03:39:40;5.20;99.90
29363;DHT22;16349;53.672;10.014;2023-01-16T03:42:11;5.20;99.90
29363;DHT22;16349;53.672;10.014;2023-01-16T03:44:43;5.20;99.90
29363;DHT22;16349;53.672;10.014;2023-01-16T03:47:15;5.20;99.90
29363;DHT22;16349;53.672;10.014;2023-01-16T03:49:49;5.20;99.90
29363;DHT22;16349;53.672;10.014;2023-01-16T03:52:20;5.30;99.90
29363;DHT22;16349;53.672;10.014;2023-01-16T03:54:51;5.20;99.90
29363;DHT22;16349;53.672;10.014;2023-01-16T03:57:22;5.20;99.90
29363;DHT22;16349;53.672;10.014;2023-01-16T03:59:52;5.20;99.90
29363;DHT22;16349;53.672;10.014;2023-01-16T04:02:23;5.10;99.90
29363;DHT22;16349;53.672;10.014;2023-01-16T04:04:58;5.10;99.90
29363;DHT22;16349;53.672;10.014;2023-01-16T04:07:31;5.10;99.90
29363;DHT22;16349;53.672;10.014;2023-01-16T04:10:04;5.00;99.90
29363;DHT22;16349;53.672;10.014;2023-01-16T04:12:35;5.00;99.90
29363;DHT22;16349;53.672;10.014;2023-01-16T04:15:05;5.00;99.90
29363;DHT22;16349;53.672;10.014;2023-01-16T04:17:35;4.90;99.90
29363;DHT22;16349;53.672;10.014;2023-01-16T04:20:05;4.90;99.90
29363;DHT22;16349;53.672;10.014;2023-01-16T04:22:33;4.90;99.90
29363;DHT22;16349;53.672;10.014;2023-01-16T04:25:02;4.90;99.90
29363;DHT22;16349;53.672;10.014;2023-01-16T04:27:29;5.00;99.90
29363;DHT22;16349;53.672;10.014;2023-01-16T04:29:56;5.00;99.90
29363;DHT22;16349;53.672;10.014;2023-01-16T04:32:23;5.00;99.90
29363;DHT22;16349;53.672;10.014;2023-01-16T04:34:51;5.00;99.90
29363;DHT22;16349;53.672;10.014;2023-01-16T04:37:18;5.00;99.90
29363;DHT22;16349;53.672;10.014;2023-01-16T04:39:45;5.10;99.90
29363;DHT22;16349;53.672;10.014;2023-01-16T04:42:13;5.10;99.90
29363;DHT22;16349;53.672;10.014;2023-01-16T04:44:40;5.10;99.90
29363;DHT22;16349;53.672;10.014;2023-01-16T04:47:07;5.10;99.90
29363;DHT22;16349;53.672;10.014;2023-01-16T04:49:34;5.10;99.90
29363;DHT22;16349;53.672;10.014;2023-01-16T04:52:02;5.20;99.90
29363;DHT22;16349;53.672;10.014;2023-01-16T04:54:30;5.20;99.90
29363;DHT22;16349;53.672;10.014;2023-01-16T04:56:57;5.20;99.90
29363;DHT22;16349;53.672;10.014;2023-01-16T04:59:24;5.20;99.90
29363;DHT22;16349;53.672;10.014;2023-01-16T05:01:51;5.20;99.90
29363;DHT22;16349;53.672;10.014;2023-01-16T05:04:18;5.20;99.90
29363;DHT22;16349;53.672;10.014;2023-01-16T05:06:47;5.30;99.90
29363;DHT22;16349;53.672;10.014;2023-01-16T05:09:15;5.30;99.90
29363;DHT22;16349;53.672;10.014;2023-01-16T05:11:43;5.30;99.90
29363;DHT22;16349;53.672;10.014;2023-01-16T05:14:10;5.30;99.90
29363;DHT22;16349;53.672;10.014;2023-01-16T05:16:37;5.30;99.90
29363;DHT22;16349;53.672;10.014;2023-01-16T05:19:07;5.30;99.90
29363;DHT22;16349;53.672;10.014;2023-01-16T05:21:34;5.30;99.90
29363;DHT22;16349;53.672;10.014;2023-01-16T05:24:01;5.30;99.90
29363;DHT22;16349;53.672;10.014;2023-01-16T05:26:28;5.30;99.90
29363;DHT22;16349;53.672;10.014;2023-01-16T05:28:57;5.30;99.90
29363;DHT22;16349;53.672;10.014;2023-01-16T05:31:24;5.30;99.90
29363;DHT22;16349;53.672;10.014;2023-01-16T05:33:51;5.30;99.90
29363;DHT22;16349;53.672;10.014;2023-01-16T05:36:18;5.30;99.90
29363;DHT22;16349;53.672;10.014;2023-01-16T05:38:45;5.30;99.90
29363;DHT22;16349;53.672;10.014;2023-01-16T05:41:12;5.40;99.90
29363;DHT22;16349;53.672;10.014;2023-01-16T05:43:39;5.30;99.90
29363;DHT22;16349;53.672;10.014;2023-01-16T05:46:07;5.30;99.90
29363;DHT22;16349;53.672;10.014;2023-01-16T05:48:34;5.40;99.90
29363;DHT22;16349;53.672;10.014;2023-01-16T05:51:03;5.40;99.90
29363;DHT22;16349;53.672;10.014;2023-01-16T05:53:29;5.30;99.90
29363;DHT22;16349;53.672;10.014;2023-01-16T05:55:56;5.40;99.90
29363;DHT22;16349;53.672;10.014;2023-01-16T05:58:24;5.40;99.90
29363;DHT22;16349;53.672;10.014;2023-01-16T06:00:51;5.40;99.90
29363;DHT22;16349;53.672;10.014;2023-01-16T06:03:19;5.40;99.90
29363;DHT22;16349;53.672;10.014;2023-01-16T06:05:47;5.40;99.90
29363;DHT22;16349;53.672;10.014;2023-01-16T06:08:14;5.30;99.90
29363;DHT22;16349;53.672;10.014;2023-01-16T06:10:41;5.40;99.90
29363;DHT22;16349;53.672;10.014;2023-01-16T06:13:09;5.30;99.90
29363;DHT22;16349;53.672;10.014;2023-01-16T06:15:37;5.30;99.90
29363;DHT22;16349;53.672;10.014;2023-01-16T06:18:04;5.30;99.90
29363;DHT22;16349;53.672;10.014;2023-01-16T06:20:32;5.30;99.90
29363;DHT22;16349;53.672;10.014;2023-01-16T06:22:59;5.30;99.90
29363;DHT22;16349;53.672;10.014;2023-01-16T06:25:26;5.30;99.90
29363;DHT22;16349;53.672;10.014;2023-01-16T06:27:53;5.20;99.90
29363;DHT22;16349;53.672;10.014;2023-01-16T06:30:19;5.20;99.90
29363;DHT22;16349;53.672;10.014;2023-01-16T06:32:47;5.20;99.90
29363;DHT22;16349;53.672;10.014;2023-01-16T06:35:15;5.10;99.90
29363;DHT22;16349;53.672;10.014;2023-01-16T06:37:44;5.20;99.90
29363;DHT22;16349;53.672;10.014;2023-01-16T06:40:11;5.10;99.90
29363;DHT22;16349;53.672;10.014;2023-01-16T06:42:38;5.10;99.90
29363;DHT22;16349;53.672;10.014;2023-01-16T06:45:05;5.10;99.90
29363;DHT22;16349;53.672;10.014;2023-01-16T06:47:33;5.10;99.90
29363;DHT22;16349;53.672;10.014;2023-01-16T06:49:59;5.10;99.90
29363;DHT22;16349;53.672;10.014;2023-01-16T06:52:29;5.10;99.90
29363;DHT22;16349;53.672;10.014;2023-01-16T06:54:56;5.10;99.90
29363;DHT22;16349;53.672;10.014;2023-01-16T06:57:24;5.10;99.90
29363;DHT22;16349;53.672;10.014;2023-01-16T06:59:51;5.10;99.90
29363;DHT22;16349;53.672;10.014;2023-01-16T07:02:18;5.10;99.90
29363;DHT22;16349;53.672;10.014;2023-01-16T07:04:44;5.10;99.90
29363;DHT22;16349;53.672;10.014;2023-01-16T07:07:12;5.10;99.90
29363;DHT22;16349;53.672;10.014;2023-01-16T07:09:38;5.00;99.90
29363;DHT22;16349;53.672;10.014;2023-01-16T07:12:06;5.10;99.90
29363;DHT22;16349;53.672;10.014;2023-01-16T07:14:33;5.10;99.90
29363;DHT22;16349;53.672;10.014;2023-01-16T07:17:18;5.00;99.90
29363;DHT22;16349;53.672;10.014;2023-01-16T07:20:04;5.00;99.90
29363;DHT22;16349;53.672;10.014;2023-01-16T07:22:48;5.00;99.90
29363;DHT22;16349;53.672;10.014;2023-01-16T07:25:17;5.00;99.90
29363;DHT22;16349;53.672;10.014;2023-01-16T07:27:48;5.00;99.90
29363;DHT22;16349;53.672;10.014;2023-01-16T07:30:16;5.00;99.90
29363;DHT22;16349;53.672;10.014;2023-01-16T07:32:43;5.00;99.90
29363;DHT22;16349;53.672;10.014;2023-01-16T07:35:10;5.00;99.90
29363;DHT22;16349;53.672;10.014;2023-01-16T07:37:37;5.00;99.90
29363;DHT22;16349;53.672;10.014;2023-01-16T07:40:06;4.90;99.90
29363;DHT22;16349;53.672;10.014;2023-01-16T07:42:33;4.90;99.90
29363;DHT22;16349;53.672;10.014;2023-01-16T07:45:02;4.90;99.90
29363;DHT22;16349;53.672;10.014;2023-01-16T07:47:28;4.90;99.90
29363;DHT22;16349;53.672;10.014;2023-01-16T07:49:55;4.90;99.90
29363;DHT22;16349;53.672;10.014;2023-01-16T07:52:24;4.90;99.90
29363;DHT22;16349;53.672;10.014;2023-01-16T07:54:50;4.90;99.90
29363;DHT22;16349;53.672;10.014;2023-01-16T07:57:17;4.90;99.90
29363;DHT22;16349;53.672;10.014;2023-01-16T07:59:44;4.80;99.90
29363;DHT22;16349;53.672;10.014;2023-01-16T08:02:12;4.80;99.90
29363;DHT22;16349;53.672;10.014;2023-01-16T08:04:39;4.80;99.90
29363;DHT22;16349;53.672;10.014;2023-01-16T08:07:06;4.80;99.90
29363;DHT22;16349;53.672;10.014;2023-01-16T08:09:33;4.80;99.90
29363;DHT22;16349;53.672;10.014;2023-01-16T08:11:59;4.80;99.90
29363;DHT22;16349;53.672;10.014;2023-01-16T08:14:26;4.80;99.90
29363;DHT22;16349;53.672;10.014;2023-01-16T08:16:53;4.80;99.90
29363;DHT22;16349;53.672;10.014;2023-01-16T08:19:21;4.80;99.90
29363;DHT22;16349;53.672;10.014;2023-01-16T08:22:10;4.80;99.90
29363;DHT22;16349;53.672;10.014;2023-01-16T08:24:36;4.80;99.90
29363;DHT22;16349;53.672;10.014;2023-01-16T08:27:03;4.80;99.90
29363;DHT22;16349;53.672;10.014;2023-01-16T08:29:30;4.80;99.90
29363;DHT22;16349;53.672;10.014;2023-01-16T08:31:56;4.80;99.90
29363;DHT22;16349;53.672;10.014;2023-01-16T08:34:25;4.80;99.90
29363;DHT22;16349;53.672;10.014;2023-01-16T08:36:52;4.90;99.90
29363;DHT22;16349;53.672;10.014;2023-01-16T08:39:18;4.90;99.90
29363;DHT22;16349;53.672;10.014;2023-01-16T08:41:45;5.00;99.90
29363;DHT22;16349;53.672;10.014;2023-01-16T08:44:29;5.00;99.90
29363;DHT22;16349;53.672;10.014;2023-01-16T08:47:18;5.10;99.90
29363;DHT22;16349;53.672;10.014;2023-01-16T08:50:11;5.10;99.90
29363;DHT22;16349;53.672;10.014;2023-01-16T08:52:56;5.10;99.90
29363;DHT22;16349;53.672;10.014;2023-01-16T08:55:22;5.10;99.90
29363;DHT22;16349;53.672;10.014;2023-01-16T08:57:50;5.10;99.90
29363;DHT22;16349;53.672;10.014;2023-01-16T09:00:17;5.10;99.90
29363;DHT22;16349;53.672;10.014;2023-01-16T09:02:45;5.10;99.90
29363;DHT22;16349;53.672;10.014;2023-01-16T09:05:13;5.10;99.90
29363;DHT22;16349;53.672;10.014;2023-01-16T09:07:40;5.10;99.90
29363;DHT22;16349;53.672;10.014;2023-01-16T09:10:09;5.10;99.90
29363;DHT22;16349;53.672;10.014;2023-01-16T09:12:37;5.10;99.90
29363;DHT22;16349;53.672;10.014;2023-01-16T09:15:22;5.20;99.90
29363;DHT22;16349;53.672;10.014;2023-01-16T09:17:49;5.20;99.90
29363;DHT22;16349;53.672;10.014;2023-01-16T09:20:17;5.20;99.90
29363;DHT22;16349;53.672;10.014;2023-01-16T09:22:44;5.20;99.90
29363;DHT22;16349;53.672;10.014;2023-01-16T09:25:11;5.20;99.90
29363;DHT22;16349;53.672;10.014;2023-01-16T09:27:38;5.20;99.90
29363;DHT22;16349;53.672;10.014;2023-01-16T09:30:05;5.10;99.90
29363;DHT22;16349;53.672;10.014;2023-01-16T09:32:32;5.10;99.90
29363;DHT22;16349;53.672;10.014;2023-01-16T09:34:59;5.10;99.90
29363;DHT22;16349;53.672;10.014;2023-01-16T09:37:28;5.10;99.90
29363;DHT22;16349;53.672;10.014;2023-01-16T09:39:54;5.10;99.90
29363;DHT22;16349;53.672;10.014;2023-01-16T09:42:33;5.10;99.90
29363;DHT22;16349;53.672;10.014;2023-01-16T09:45:23;5.10;99.90
29363;DHT22;16349;53.672;10.014;2023-01-16T09:47:54;5.00;99.90
29363;DHT22;16349;53.672;10.014;2023-01-16T09:50:29;5.00;99.90
29363;DHT22;16349;53.672;10.014;2023-01-16T09:53:00;5.00;99.90
29363;DHT22;16349;53.672;10.014;2023-01-16T09:55:48;5.10;99.90
29363;DHT22;16349;53.672;10.014;2023-01-16T09:58:37;5.00;99.90
29363;DHT22;16349;53.672;10.014;2023-01-16T10:01:08;5.00;99.90
29363;DHT22;16349;53.672;10.014;2023-01-16T10:03:35;5.00;99.90
29363;DHT22;16349;53.672;10.014;2023-01-16T10:06:14;5.00;99.90
29363;DHT22;16349;53.672;10.014;2023-01-16T10:08:55;5.00;99.90
29363;DHT22;16349;53.672;10.014;2023-01-16T10:11:29;5.10;99.90
29363;DHT22;16349;53.672;10.014;2023-01-16T10:14:06;5.10;99.90
29363;DHT22;16349;53.672;10.014;2023-01-16T10:16:46;5.10;99.90
29363;DHT22;16349;53.672;10.014;2023-01-16T10:19:25;5.20;99.90
29363;DHT22;16349;53.672;10.014;2023-01-16T10:22:03;5.20;99.90
29363;DHT22;16349;53.672;10.014;2023-01-16T10:24:41;5.30;99.90
29363;DHT22;16349;53.672;10.014;2023-01-16T10:27:17;5.30;99.90
29363;DHT22;16349;53.672;10.014;2023-01-16T10:29:48;5.40;99.90
29363;DHT22;16349;53.672;10.014;2023-01-16T10:32:21;5.40;99.90
29363;DHT22;16349;53.672;10.014;2023-01-16T10:34:54;5.50;99.90
29363;DHT22;16349;53.672;10.014;2023-01-16T10:37:26;5.50;99.90
29363;DHT22;16349;53.672;10.014;2023-01-16T10:39:55;5.60;99.90
29363;DHT22;16349;53.672;10.014;2023-01-16T10:42:25;5.60;99.90
29363;DHT22;16349;53.672;10.014;2023-01-16T10:45:13;5.60;99.90
29363;DHT22;16349;53.672;10.014;2023-01-16T10:47:58;5.70;99.90
29363;DHT22;16349;53.672;10.014;2023-01-16T10:50:43;5.70;99.90
29363;DHT22;16349;53.672;10.014;2023-01-16T10:53:10;5.80;99.90
29363;DHT22;16349;53.672;10.014;2023-01-16T10:55:41;5.70;99.90
29363;DHT22;16349;53.672;10.014;2023-01-16T10:58:22;5.70;99.90
29363;DHT22;16349;53.672;10.014;2023-01-16T11:00:50;5.80;99.90
29363;DHT22;16349;53.672;10.014;2023-01-16T11:03:23;5.80;99.90
29363;DHT22;16349;53.672;10.014;2023-01-16T11:06:06;5.80;99.90
29363;DHT22;16349;53.672;10.014;2023-01-16T11:08:33;5.90;99.90
29363;DHT22;16349;53.672;10.014;2023-01-16T11:11:02;5.90;99.90
29363;DHT22;16349;53.672;10.014;2023-01-16T11:13:29;5.90;99.90
29363;DHT22;16349;53.672;10.014;2023-01-16T11:16:18;5.90;99.90
29363;DHT22;16349;53.672;10.014;2023-01-16T11:19:15;6.00;99.90
29363;DHT22;16349;53.672;10.014;2023-01-16T11:21:44;5.90;99.90
29363;DHT22;16349;53.672;10.014;2023-01-16T11:24:16;6.00;99.90
29363;DHT22;16349;53.672;10.014;2023-01-16T11:26:49;6.00;99.90
29363;DHT22;16349;53.672;10.014;2023-01-16T11:29:17;6.00;99.90
29363;DHT22;16349;53.672;10.014;2023-01-16T11:31:48;6.00;99.90
29363;DHT22;16349;53.672;10.014;2023-01-16T11:34:15;6.00;99.90
29363;DHT22;16349;53.672;10.014;2023-01-16T11:37:05;6.00;99.90
29363;DHT22;16349;53.672;10.014;2023-01-16T11:39:34;6.00;99.90
29363;DHT22;16349;53.672;10.014;2023-01-16T11:42:06;6.00;99.90
29363;DHT22;16349;53.672;10.014;2023-01-16T11:44:59;6.00;99.90
29363;DHT22;16349;53.672;10.014;2023-01-16T11:47:52;6.00;99.90
29363;DHT22;16349;53.672;10.014;2023-01-16T11:50:27;6.00;99.90
29363;DHT22;16349;53.672;10.014;2023-01-16T11:52:54;6.00;99.90
29363;DHT22;16349;53.672;10.014;2023-01-16T11:55:22;6.10;99.90
29363;DHT22;16349;53.672;10.014;2023-01-16T11:57:59;6.10;99.90
29363;DHT22;16349;53.672;10.014;2023-01-16T12:00:35;6.10;99.90
29363;DHT22;16349;53.672;10.014;2023-01-16T12:03:42;6.20;99.90
29363;DHT22;16349;53.672;10.014;2023-01-16T12:06:21;6.20;99.90
29363;DHT22;16349;53.672;10.014;2023-01-16T12:12:17;6.20;99.90
29363;DHT22;16349;53.672;10.014;2023-01-16T12:15:07;6.30;99.90
29363;DHT22;16349;53.672;10.014;2023-01-16T12:17:53;6.30;99.90
29363;DHT22;16349;53.672;10.014;2023-01-16T12:20:38;6.30;99.90
29363;DHT22;16349;53.672;10.014;2023-01-16T12:23:22;6.30;99.90
29363;DHT22;16349;53.672;10.014;2023-01-16T12:26:02;6.30;99.90
29363;DHT22;16349;53.672;10.014;2023-01-16T12:28:39;6.40;99.90
29363;DHT22;16349;53.672;10.014;2023-01-16T12:31:24;6.30;99.90
29363;DHT22;16349;53.672;10.014;2023-01-16T12:34:13;6.30;99.90
29363;DHT22;16349;53.672;10.014;2023-01-16T12:36:50;6.30;99.90
29363;DHT22;16349;53.672;10.014;2023-01-16T12:39:21;6.30;99.90
29363;DHT22;16349;53.672;10.014;2023-01-16T12:41:58;6.30;99.90
29363;DHT22;16349;53.672;10.014;2023-01-16T12:45:03;6.30;99.90
29363;DHT22;16349;53.672;10.014;2023-01-16T12:47:45;6.30;99.90
29363;DHT22;16349;53.672;10.014;2023-01-16T12:50:32;6.30;99.90
29363;DHT22;16349;53.672;10.014;2023-01-16T12:53:12;6.30;99.90
29363;DHT22;16349;53.672;10.014;2023-01-16T12:55:47;6.30;99.90
29363;DHT22;16349;53.672;10.014;2023-01-16T12:58:17;6.30;99.90
29363;DHT22;16349;53.672;10.014;2023-01-16T13:00:49;6.30;99.90
29363;DHT22;16349;53.672;10.014;2023-01-16T13:03:26;6.20;99.90
29363;DHT22;16349;53.672;10.014;2023-01-16T13:05:55;6.20;99.90
29363;DHT22;16349;53.672;10.014;2023-01-16T13:08:25;6.20;99.90
29363;DHT22;16349;53.672;10.014;2023-01-16T13:10:55;6.20;99.90
29363;DHT22;16349;53.672;10.014;2023-01-16T13:13:47;6.20;99.90
29363;DHT22;16349;53.672;10.014;2023-01-16T13:16:20;6.20;99.90
29363;DHT22;16349;53.672;10.014;2023-01-16T13:18:53;6.20;99.90
29363;DHT22;16349;53.672;10.014;2023-01-16T13:21:25;6.20;99.90
29363;DHT22;16349;53.672;10.014;2023-01-16T13:23:56;6.20;99.90
29363;DHT22;16349;53.672;10.014;2023-01-16T13:26:24;6.20;99.90
29363;DHT22;16349;53.672;10.014;2023-01-16T13:28:57;6.20;99.90
29363;DHT22;16349;53.672;10.014;2023-01-16T13:31:30;6.20;99.90
29363;DHT22;16349;53.672;10.014;2023-01-16T13:34:03;6.20;99.90
29363;DHT22;16349;53.672;10.014;2023-01-16T13:37:02;6.20;99.90
29363;DHT22;16349;53.672;10.014;2023-01-16T13:40:01;6.20;99.90
29363;DHT22;16349;53.672;10.014;2023-01-16T13:42:31;6.20;99.90
29363;DHT22;16349;53.672;10.014;2023-01-16T13:45:05;6.20;99.90
29363;DHT22;16349;53.672;10.014;2023-01-16T13:47:51;6.20;99.90
29363;DHT22;16349;53.672;10.014;2023-01-16T13:50:23;6.20;99.90
29363;DHT22;16349;53.672;10.014;2023-01-16T13:52:53;6.10;99.90
29363;DHT22;16349;53.672;10.014;2023-01-16T13:55:27;6.10;99.90
29363;DHT22;16349;53.672;10.014;2023-01-16T13:57:55;6.10;99.90
29363;DHT22;16349;53.672;10.014;2023-01-16T14:00:23;6.00;99.90
29363;DHT22;16349;53.672;10.014;2023-01-16T14:03:16;6.00;99.90
29363;DHT22;16349;53.672;10.014;2023-01-16T14:05:48;6.00;99.90
29363;DHT22;16349;53.672;10.014;2023-01-16T14:08:26;6.00;99.90
29363;DHT22;16349;53.672;10.014;2023-01-16T14:11:28;5.90;99.90
29363;DHT22;16349;53.672;10.014;2023-01-16T14:14:31;5.90;99.90
29363;DHT22;16349;53.672;10.014;2023-01-16T14:17:17;5.90;99.90
29363;DHT22;16349;53.672;10.014;2023-01-16T14:19:53;5.90;99.90
29363;DHT22;16349;53.672;10.014;2023-01-16T14:22:22;5.90;99.90
29363;DHT22;16349;53.672;10.014;2023-01-16T14:25:15;5.90;99.90
29363;DHT22;16349;53.672;10.014;2023-01-16T14:27:43;5.90;99.90
29363;DHT22;16349;53.672;10.014;2023-01-16T14:30:16;5.90;99.90
29363;DHT22;16349;53.672;10.014;2023-01-16T14:32:46;5.90;99.90
29363;DHT22;16349;53.672;10.014;2023-01-16T14:35:17;5.80;99.90
29363;DHT22;16349;53.672;10.014;2023-01-16T14:37:55;5.90;99.90
29363;DHT22;16349;53.672;10.014;2023-01-16T14:40:24;5.80;99.90
29363;DHT22;16349;53.672;10.014;2023-01-16T14:43:14;5.80;99.90
29363;DHT22;16349;53.672;10.014;2023-01-16T14:46:23;5.80;99.90
29363;DHT22;16349;53.672;10.014;2023-01-16T14:49:39;5.80;99.90
29363;DHT22;16349;53.672;10.014;2023-01-16T14:55:47;5.70;99.90
29363;DHT22;16349;53.672;10.014;2023-01-16T14:58:20;5.60;99.90
29363;DHT22;16349;53.672;10.014;2023-01-16T15:00:49;5.60;99.90
29363;DHT22;16349;53.672;10.014;2023-01-16T15:03:21;5.60;99.90
29363;DHT22;16349;53.672;10.014;2023-01-16T15:05:51;5.60;99.90
29363;DHT22;16349;53.672;10.014;2023-01-16T15:08:23;5.60;99.90
29363;DHT22;16349;53.672;10.014;2023-01-16T15:10:54;5.60;99.90
29363;DHT22;16349;53.672;10.014;2023-01-16T15:13:23;5.60;99.90
29363;DHT22;16349;53.672;10.014;2023-01-16T15:15:54;5.70;99.90
29363;DHT22;16349;53.672;10.014;2023-01-16T15:18:23;5.70;99.90
29363;DHT22;16349;53.672;10.014;2023-01-16T15:21:15;5.70;99.90
29363;DHT22;16349;53.672;10.014;2023-01-16T15:24:00;5.70;99.90
29363;DHT22;16349;53.672;10.014;2023-01-16T15:26:56;5.60;99.90
29363;DHT22;16349;53.672;10.014;2023-01-16T15:29:41;5.70;99.90
29363;DHT22;16349;53.672;10.014;2023-01-16T15:32:11;5.70;99.90
29363;DHT22;16349;53.672;10.014;2023-01-16T15:34:44;5.70;99.90
29363;DHT22;16349;53.672;10.014;2023-01-16T15:37:21;5.60;99.90
29363;DHT22;16349;53.672;10.014;2023-01-16T15:39:48;5.70;99.90
29363;DHT22;16349;53.672;10.014;2023-01-16T15:42:20;5.70;99.90
29363;DHT22;16349;53.672;10.014;2023-01-16T15:45:16;5.70;99.90
29363;DHT22;16349;53.672;10.014;2023-01-16T15:48:20;5.70;99.90
29363;DHT22;16349;53.672;10.014;2023-01-16T15:50:54;5.70;99.90
29363;DHT22;16349;53.672;10.014;2023-01-16T15:53:23;5.70;99.90
29363;DHT22;16349;53.672;10.014;2023-01-16T15:56:00;5.70;99.90
29363;DHT22;16349;53.672;10.014;2023-01-16T15:58:29;5.70;99.90
29363;DHT22;16349;53.672;10.014;2023-01-16T16:00:58;5.70;99.90
29363;DHT22;16349;53.672;10.014;2023-01-16T16:03:29;5.70;99.90
29363;DHT22;16349;53.672;10.014;2023-01-16T16:05:59;5.70;99.90
29363;DHT22;16349;53.672;10.014;2023-01-16T16:08:31;5.70;99.90
29363;DHT22;16349;53.672;10.014;2023-01-16T16:11:00;5.70;99.90
29363;DHT22;16349;53.672;10.014;2023-01-16T16:13:48;5.60;99.90
29363;DHT22;16349;53.672;10.014;2023-01-16T16:16:17;5.60;99.90